Time;durP1;ratioP1;P1;durP2;ratioP2;P2;SDS_P1;SDS_P2;PMS_P1;PMS_P2;Temp;Humidity;BMP_temperature;BMP_pressure;BME280_temperature;BME280_humidity;BME280_pressure;Samples;Min_cycle;Max_cycle;Signal;HPM_P1;HPM_P2
2021/04/28 00:00:30;;;;;;;11.50;5.20;;;8.50;1.00;;;;;;5009987;28;20473;-71
2021/04/28 00:02:56;;;;;;;8.23;5.90;;;8.60;1.00;;;;;;5005957;28;20208;-71
2021/04/28 00:05:23;;;;;;;15.43;6.20;;;8.50;1.00;;;;;;5003793;28;20490;-71
2021/04/28 00:07:48;;;;;;;9.40;5.50;;;8.50;1.00;;;;;;4994625;28;20977;-72
2021/04/28 00:10:17;;;;;;;11.33;5.67;;;8.50;1.00;;;;;;5012099;28;20951;-71
2021/04/28 00:12:43;;;;;;;7.47;5.30;;;8.50;1.00;;;;;;5012961;28;20914;-71
2021/04/28 00:15:13;;;;;;;10.83;6.37;;;8.50;1.00;;;;;;5007469;28;20445;-71
2021/04/28 00:17:39;;;;;;;8.73;6.67;;;8.60;1.00;;;;;;5013672;28;20450;-71
2021/04/28 00:20:09;;;;;;;11.30;6.60;;;8.50;1.00;;;;;;5012993;28;20527;-71
2021/04/28 00:22:34;;;;;;;10.63;6.03;;;8.50;1.00;;;;;;4998319;28;20200;-72
2021/04/28 00:25:03;;;;;;;9.80;6.30;;;8.50;1.00;;;;;;5008840;28;20580;-71
2021/04/28 00:27:28;;;;;;;9.60;6.20;;;8.40;1.00;;;;;;5012335;28;20277;-71
2021/04/28 00:29:54;;;;;;;11.67;7.07;;;8.40;1.00;;;;;;5014484;28;20449;-72
2021/04/28 00:32:20;;;;;;;11.07;7.00;;;8.30;1.00;;;;;;5006542;28;20188;-71
2021/04/28 00:34:45;;;;;;;11.40;6.23;;;8.40;1.00;;;;;;5014731;28;20215;-72
2021/04/28 00:37:11;;;;;;;7.87;6.33;;;8.30;1.00;;;;;;5014730;28;20196;-69
2021/04/28 00:39:36;;;;;;;9.20;6.13;;;8.30;1.00;;;;;;5008929;28;20276;-71
2021/04/28 00:42:02;;;;;;;9.63;6.83;;;8.30;1.00;;;;;;5002718;28;20230;-71
2021/04/28 00:44:28;;;;;;;13.20;5.47;;;8.20;1.00;;;;;;5005187;28;20196;-70
2021/04/28 00:46:53;;;;;;;13.90;6.17;;;8.30;1.00;;;;;;5014106;28;20908;-71
2021/04/28 00:49:21;;;;;;;9.70;6.17;;;8.30;1.00;;;;;;5006621;28;20368;-70
2021/04/28 00:51:47;;;;;;;11.73;6.60;;;8.30;1.00;;;;;;5002704;28;20510;-71
2021/04/28 00:54:13;;;;;;;9.00;5.70;;;8.20;1.00;;;;;;5008985;28;20533;-70
2021/04/28 00:56:39;;;;;;;12.03;6.10;;;8.10;1.00;;;;;;5019291;28;20464;-70
2021/04/28 00:59:05;;;;;;;16.23;7.23;;;8.10;1.00;;;;;;5021610;28;20443;-70
2021/04/28 01:01:30;;;;;;;10.40;6.63;;;8.00;1.00;;;;;;5004229;28;20185;-71
2021/04/28 01:03:57;;;;;;;9.47;6.33;;;8.00;1.00;;;;;;5021046;28;20220;-71
2021/04/28 01:06:23;;;;;;;8.40;6.40;;;8.00;1.00;;;;;;5015565;28;20215;-71
2021/04/28 01:08:49;;;;;;;10.23;5.73;;;8.00;1.00;;;;;;5009220;28;20441;-70
2021/04/28 01:11:15;;;;;;;15.70;7.37;;;8.00;1.00;;;;;;4996372;28;21031;-71
2021/04/28 01:13:56;;;;;;;8.60;6.10;;;7.90;1.00;;;;;;5000217;28;20445;-71
2021/04/28 01:16:23;;;;;;;9.40;6.50;;;7.90;1.00;;;;;;5008907;28;21154;-70
2021/04/28 01:18:49;;;;;;;7.40;6.70;;;7.90;1.00;;;;;;5003016;28;20474;-71
2021/04/28 01:21:17;;;;;;;7.90;7.10;;;7.80;1.00;;;;;;5016488;28;20677;-72
2021/04/28 01:23:43;;;;;;;10.83;7.90;;;7.80;1.00;;;;;;5007048;28;20446;-72
2021/04/28 01:26:10;;;;;;;9.30;5.90;;;7.70;1.00;;;;;;4998469;28;20215;-71
2021/04/28 01:28:36;;;;;;;9.50;6.00;;;7.70;1.00;;;;;;5002627;28;21034;-71
2021/04/28 01:31:09;;;;;;;10.00;6.20;;;7.70;1.00;;;;;;4993690;28;20498;-71
2021/04/28 01:33:46;;;;;;;10.43;6.83;;;7.70;1.00;;;;;;5009761;28;20531;-71
2021/04/28 01:36:20;;;;;;;10.43;7.13;;;7.70;1.00;;;;;;5003102;28;20465;-71
2021/04/28 01:38:50;;;;;;;10.50;5.90;;;7.60;1.00;;;;;;4995696;28;20457;-71
2021/04/28 01:41:18;;;;;;;8.67;6.53;;;7.50;1.00;;;;;;5007240;28;20461;-72
2021/04/28 01:43:45;;;;;;;9.07;6.10;;;7.50;1.00;;;;;;4989322;28;20464;-71
2021/04/28 01:46:12;;;;;;;9.73;5.77;;;7.50;1.00;;;;;;5004730;28;21228;-72
2021/04/28 01:48:39;;;;;;;9.40;6.60;;;7.50;1.00;;;;;;5000110;28;20560;-71
2021/04/28 01:51:05;;;;;;;10.83;7.00;;;7.50;1.00;;;;;;5012903;28;21023;-72
2021/04/28 01:53:32;;;;;;;14.47;6.63;;;7.40;1.00;;;;;;5016495;28;20603;-71
2021/04/28 01:55:59;;;;;;;13.00;6.50;;;7.40;1.00;;;;;;5008167;28;20450;-72
2021/04/28 01:58:43;;;;;;;8.67;6.17;;;7.40;1.00;;;;;;5005140;28;20570;-71
2021/04/28 02:01:27;;;;;;;13.03;6.60;;;7.30;1.00;;;;;;5020468;28;21035;-71
2021/04/28 02:03:55;;;;;;;10.27;6.50;;;7.20;1.00;;;;;;5002290;28;20443;-72
2021/04/28 02:06:21;;;;;;;9.87;7.20;;;7.10;1.00;;;;;;5001604;28;20469;-72
2021/04/28 02:08:46;;;;;;;9.13;7.10;;;7.10;1.00;;;;;;5005495;28;20608;-71
2021/04/28 02:11:13;;;;;;;7.93;6.63;;;7.10;1.00;;;;;;5017169;28;20184;-72
2021/04/28 02:13:44;;;;;;;10.70;6.53;;;7.00;1.00;;;;;;5008496;28;20442;-71
2021/04/28 02:16:21;;;;;;;14.00;7.10;;;7.00;1.00;;;;;;4994972;28;20497;-71
2021/04/28 02:18:48;;;;;;;15.63;7.53;;;7.00;1.00;;;;;;5015912;28;20602;-72
2021/04/28 02:21:15;;;;;;;8.10;6.30;;;6.90;1.00;;;;;;5003522;28;20526;-71
2021/04/28 02:23:56;;;;;;;8.50;6.70;;;6.90;1.00;;;;;;5003101;28;20947;-72
2021/04/28 02:26:23;;;;;;;9.17;7.63;;;6.80;1.00;;;;;;5012023;28;21007;-72
2021/04/28 02:28:48;;;;;;;11.90;7.10;;;6.80;1.00;;;;;;4999731;28;20439;-71
2021/04/28 02:31:15;;;;;;;10.20;7.20;;;6.80;1.00;;;;;;5015125;28;20184;-72
2021/04/28 02:33:43;;;;;;;12.30;7.60;;;6.80;1.00;;;;;;5006550;28;20246;-71
2021/04/28 02:36:51;;;;;;;8.60;7.00;;;6.70;1.00;;;;;;5009258;28;20443;-71
2021/04/28 02:39:57;;;;;;;11.47;6.73;;;6.70;1.00;;;;;;5000331;28;20955;-71
2021/04/28 02:42:23;;;;;;;14.33;7.27;;;6.70;1.00;;;;;;5008710;28;23943;-72
2021/04/28 02:44:50;;;;;;;10.03;6.40;;;6.70;1.00;;;;;;5004380;28;20457;-71
2021/04/28 02:47:19;;;;;;;12.20;7.73;;;6.70;1.00;;;;;;5004560;28;21492;-72
2021/04/28 02:49:45;;;;;;;10.50;6.93;;;6.70;1.00;;;;;;5014674;28;20468;-72
2021/04/28 02:52:29;;;;;;;16.13;7.30;;;6.70;1.00;;;;;;5000657;28;20440;-71
2021/04/28 02:54:55;;;;;;;13.00;7.97;;;6.80;1.00;;;;;;5021581;28;20462;-71
2021/04/28 02:57:22;;;;;;;11.93;7.53;;;6.80;1.00;;;;;;5010481;28;20465;-71
2021/04/28 02:59:51;;;;;;;9.87;6.80;;;6.80;1.00;;;;;;4997211;28;21095;-71
2021/04/28 03:02:18;;;;;;;12.17;7.70;;;6.80;1.00;;;;;;4987155;28;20458;-72
2021/04/28 03:04:46;;;;;;;10.73;6.90;;;6.90;1.00;;;;;;5006305;28;20765;-71
2021/04/28 03:07:15;;;;;;;9.40;6.87;;;6.80;1.00;;;;;;5011673;28;20928;-72
2021/04/28 03:09:43;;;;;;;13.37;7.37;;;6.80;1.00;;;;;;5017938;28;20588;-71
2021/04/28 03:12:11;;;;;;;13.33;6.90;;;6.70;1.00;;;;;;5014537;28;20453;-71
2021/04/28 03:14:43;;;;;;;12.37;8.77;;;6.70;1.00;;;;;;5011300;28;20543;-72
2021/04/28 03:17:09;;;;;;;11.47;6.57;;;6.60;1.00;;;;;;5006709;28;20452;-71
2021/04/28 03:19:37;;;;;;;12.27;7.73;;;6.50;1.00;;;;;;5010830;28;20560;-71
2021/04/28 03:22:03;;;;;;;20.90;8.70;;;6.50;1.00;;;;;;5012413;28;20814;-71
2021/04/28 03:24:30;;;;;;;10.60;7.17;;;6.50;1.00;;;;;;5013849;28;20881;-71
2021/04/28 03:27:10;;;;;;;11.07;7.30;;;6.30;1.00;;;;;;5024036;28;20492;-72
2021/04/28 03:29:41;;;;;;;10.83;6.87;;;6.20;1.00;;;;;;5005454;28;20455;-72
2021/04/28 03:32:07;;;;;;;10.33;6.63;;;6.20;1.00;;;;;;4992055;28;20449;-72
2021/04/28 03:34:35;;;;;;;10.17;6.93;;;6.10;1.00;;;;;;4987102;28;20551;-71
2021/04/28 03:37:03;;;;;;;10.00;7.23;;;6.10;1.00;;;;;;5005516;28;20483;-71
2021/04/28 03:39:45;;;;;;;14.83;9.03;;;6.10;1.00;;;;;;5009469;28;20555;-71
2021/04/28 03:42:11;;;;;;;12.03;8.50;;;6.10;1.00;;;;;;5014873;28;22086;-72
2021/04/28 03:44:38;;;;;;;10.13;7.77;;;6.00;1.00;;;;;;5009375;28;21076;-71
2021/04/28 03:47:05;;;;;;;18.43;7.13;;;5.90;1.00;;;;;;4999935;28;20461;-71
2021/04/28 03:49:33;;;;;;;14.93;6.90;;;5.90;1.00;;;;;;4987884;28;21430;-71
2021/04/28 03:51:59;;;;;;;13.07;8.13;;;6.00;1.00;;;;;;4999576;28;20538;-72
2021/04/28 03:54:43;;;;;;;10.00;7.63;;;5.80;1.00;;;;;;5013056;28;20210;-72
2021/04/28 03:57:11;;;;;;;12.27;8.67;;;5.80;1.00;;;;;;5008829;28;20733;-71
2021/04/28 03:59:36;;;;;;;10.03;8.93;;;5.70;1.00;;;;;;5017426;28;20983;-71
2021/04/28 04:02:05;;;;;;;9.60;7.73;;;5.60;1.00;;;;;;5009488;28;20719;-71
2021/04/28 04:04:50;;;;;;;11.20;7.17;;;5.60;1.00;;;;;;5012163;28;20530;-71
2021/04/28 04:07:36;;;;;;;10.90;8.13;;;5.70;1.00;;;;;;5007840;28;20465;-71
2021/04/28 04:10:06;;;;;;;11.77;8.47;;;5.80;1.00;;;;;;4998847;28;20845;-71
2021/04/28 04:12:33;;;;;;;12.60;8.00;;;5.90;1.00;;;;;;5005139;28;20434;-71
2021/04/28 04:14:58;;;;;;;15.13;7.80;;;5.70;1.00;;;;;;5013384;28;21132;-71
2021/04/28 04:17:25;;;;;;;12.00;8.37;;;5.70;1.00;;;;;;4989326;28;21018;-71
2021/04/28 04:20:11;;;;;;;14.27;7.87;;;5.60;1.00;;;;;;5010925;28;20491;-71
2021/04/28 04:22:46;;;;;;;15.50;8.53;;;5.60;1.00;;;;;;5000657;28;20904;-71
2021/04/28 04:25:32;;;;;;;11.30;8.10;;;5.60;1.00;;;;;;5010846;28;20691;-71
2021/04/28 04:27:57;;;;;;;17.80;8.00;;;5.60;1.00;;;;;;4995117;28;20460;-71
2021/04/28 04:30:42;;;;;;;9.60;8.10;;;5.50;1.00;;;;;;5015372;28;20989;-71
2021/04/28 04:33:26;;;;;;;12.50;8.23;;;5.60;1.00;;;;;;5014108;28;20452;-72
2021/04/28 04:36:10;;;;;;;11.00;9.03;;;5.60;1.00;;;;;;5002136;28;20584;-72
2021/04/28 04:38:54;;;;;;;13.37;7.67;;;5.70;1.00;;;;;;5005709;28;20458;-72
2021/04/28 04:41:42;;;;;;;11.60;9.03;;;5.70;1.00;;;;;;5007234;28;20461;-72
2021/04/28 04:44:16;;;;;;;11.73;8.90;;;5.70;1.00;;;;;;5012875;28;20458;-72
2021/04/28 04:46:59;;;;;;;10.37;7.90;;;5.70;1.00;;;;;;5013938;28;20639;-72
2021/04/28 04:49:25;;;;;;;10.57;8.40;;;5.70;1.00;;;;;;5013869;28;20485;-71
2021/04/28 04:51:51;;;;;;;18.80;9.67;;;5.60;1.00;;;;;;5007647;28;20207;-72
2021/04/28 04:54:16;;;;;;;11.80;8.40;;;5.60;1.00;;;;;;5002823;28;20202;-72
2021/04/28 04:56:42;;;;;;;13.77;9.10;;;5.60;1.00;;;;;;5010804;28;20190;-72
2021/04/28 04:59:08;;;;;;;14.43;8.03;;;5.70;1.00;;;;;;5010237;28;20318;-71
2021/04/28 05:01:34;;;;;;;11.27;8.50;;;5.70;1.00;;;;;;5007936;28;20456;-70
2021/04/28 05:03:59;;;;;;;14.70;9.17;;;5.60;1.00;;;;;;5013326;28;20204;-69
2021/04/28 05:06:25;;;;;;;13.97;9.60;;;5.60;1.00;;;;;;5003800;28;20948;-72
2021/04/28 05:08:51;;;;;;;12.40;10.23;;;5.50;1.00;;;;;;5012286;28;20558;-70
2021/04/28 05:11:17;;;;;;;20.70;10.40;;;5.50;1.00;;;;;;5004063;28;20772;-71
2021/04/28 05:13:42;;;;;;;14.50;9.37;;;5.60;1.00;;;;;;5015644;28;20194;-71
2021/04/28 05:16:09;;;;;;;13.33;8.93;;;5.60;1.00;;;;;;5004956;28;20454;-71
2021/04/28 05:18:34;;;;;;;15.60;10.07;;;5.70;1.00;;;;;;5026173;28;20480;-70
2021/04/28 05:21:00;;;;;;;14.37;9.50;;;5.60;1.00;;;;;;5015558;28;20481;-71
2021/04/28 05:23:26;;;;;;;14.67;10.67;;;5.70;1.00;;;;;;5014543;28;20618;-71
2021/04/28 05:26:12;;;;;;;12.83;9.13;;;5.70;1.00;;;;;;5004548;28;20685;-70
2021/04/28 05:28:38;;;;;;;14.27;9.40;;;5.80;1.00;;;;;;5021615;28;20843;-71
2021/04/28 05:31:04;;;;;;;13.10;9.30;;;5.90;1.00;;;;;;5008376;28;20450;-71
2021/04/28 05:33:29;;;;;;;14.63;10.40;;;5.90;1.00;;;;;;5021920;28;20301;-70
2021/04/28 05:35:55;;;;;;;12.80;10.90;;;5.90;1.00;;;;;;5014072;28;20900;-72
2021/04/28 05:38:21;;;;;;;16.03;10.17;;;6.00;1.00;;;;;;5021161;28;20186;-71
2021/04/28 05:40:47;;;;;;;13.27;9.47;;;6.00;1.00;;;;;;5029747;28;20644;-71
2021/04/28 05:43:16;;;;;;;13.63;9.30;;;6.00;1.00;;;;;;5018977;28;20461;-72
2021/04/28 05:45:43;;;;;;;13.63;10.23;;;6.10;1.00;;;;;;5018276;28;20856;-71
2021/04/28 05:48:14;;;;;;;18.63;10.10;;;6.10;1.00;;;;;;5024292;28;20476;-71
2021/04/28 05:50:41;;;;;;;15.33;10.20;;;6.10;1.00;;;;;;5025565;28;20471;-70
2021/04/28 05:53:08;;;;;;;24.17;10.90;;;6.20;1.00;;;;;;5024158;28;21249;-70
2021/04/28 05:55:34;;;;;;;16.43;11.17;;;6.30;1.00;;;;;;5019281;28;20461;-70
2021/04/28 05:58:00;;;;;;;18.77;11.20;;;6.40;1.00;;;;;;5027257;28;20450;-70
2021/04/28 06:00:27;;;;;;;24.20;12.00;;;6.40;1.00;;;;;;5025873;28;20446;-70
2021/04/28 06:02:52;;;;;;;19.53;12.90;;;6.50;1.00;;;;;;5025660;28;20187;-70
2021/04/28 06:05:19;;;;;;;21.40;12.67;;;6.60;1.00;;;;;;5021222;28;20506;-71
2021/04/28 06:07:45;;;;;;;20.13;11.70;;;6.60;1.00;;;;;;5005371;28;20733;-70
2021/04/28 06:10:16;;;;;;;16.20;10.60;;;6.60;1.00;;;;;;5017335;28;20558;-70
2021/04/28 06:12:42;;;;;;;16.23;10.10;;;6.70;1.00;;;;;;5028137;28;20520;-70
2021/04/28 06:15:09;;;;;;;19.20;12.20;;;6.70;1.00;;;;;;5023033;28;20763;-70
2021/04/28 06:17:35;;;;;;;14.80;10.63;;;6.70;1.00;;;;;;5006122;28;20450;-70
2021/04/28 06:20:03;;;;;;;17.57;11.47;;;6.70;1.00;;;;;;5008434;28;20445;-70
2021/04/28 06:22:28;;;;;;;23.73;11.53;;;6.90;1.00;;;;;;4989769;28;21301;-70
2021/04/28 06:24:54;;;;;;;26.87;11.17;;;7.00;1.00;;;;;;5009198;28;20438;-70
2021/04/28 06:27:20;;;;;;;18.63;10.17;;;7.10;1.00;;;;;;5013574;28;20273;-70
2021/04/28 06:29:46;;;;;;;18.83;12.60;;;7.10;1.00;;;;;;5010258;28;20180;-70
2021/04/28 06:32:11;;;;;;;17.87;11.53;;;7.30;1.00;;;;;;5010336;28;21091;-70
2021/04/28 06:34:37;;;;;;;19.10;10.77;;;7.40;1.00;;;;;;5006958;28;20414;-70
2021/04/28 06:37:03;;;;;;;14.47;10.20;;;7.50;1.00;;;;;;5002883;28;20666;-70
2021/04/28 06:39:29;;;;;;;15.37;11.77;;;7.60;1.00;;;;;;5001845;28;20884;-70
2021/04/28 06:41:54;;;;;;;13.83;10.13;;;7.70;1.00;;;;;;5008361;28;20188;-70
2021/04/28 06:44:20;;;;;;;16.03;10.53;;;7.80;1.00;;;;;;4985152;28;20567;-70
2021/04/28 06:46:46;;;;;;;14.63;10.60;;;8.00;1.00;;;;;;5004049;28;20639;-70
2021/04/28 06:49:12;;;;;;;16.37;10.30;;;8.20;1.00;;;;;;5000554;28;20620;-70
2021/04/28 06:51:38;;;;;;;23.47;10.40;;;8.30;1.00;;;;;;4993763;28;20458;-70
2021/04/28 06:54:04;;;;;;;18.07;11.53;;;8.50;1.00;;;;;;4997368;28;20176;-70
2021/04/28 06:56:31;;;;;;;16.57;10.40;;;8.60;1.00;;;;;;4976377;28;20450;-71
2021/04/28 06:58:56;;;;;;;23.20;10.57;;;8.80;1.00;;;;;;4999714;28;20488;-71
2021/04/28 07:01:22;;;;;;;16.37;12.20;;;8.90;1.00;;;;;;5003864;28;20944;-71
2021/04/28 07:03:48;;;;;;;17.33;11.53;;;9.20;1.00;;;;;;4999284;28;20691;-71
2021/04/28 07:06:14;;;;;;;17.77;9.57;;;9.30;1.00;;;;;;5003474;28;20475;-71
2021/04/28 07:08:40;;;;;;;17.97;9.83;;;9.50;1.00;;;;;;4998586;28;21547;-71
2021/04/28 07:11:07;;;;;;;12.67;9.50;;;9.50;1.00;;;;;;5000849;28;20188;-71
2021/04/28 07:13:33;;;;;;;13.90;10.30;;;9.70;1.00;;;;;;5000264;28;20464;-71
2021/04/28 07:15:59;;;;;;;11.10;9.20;;;9.80;1.00;;;;;;5000711;28;20839;-71
2021/04/28 07:18:25;;;;;;;14.27;9.63;;;9.90;1.00;;;;;;5001250;28;20973;-71
2021/04/28 07:20:50;;;;;;;19.50;9.80;;;10.00;1.00;;;;;;4996559;28;20501;-71
2021/04/28 07:23:16;;;;;;;15.70;9.93;;;10.20;1.00;;;;;;4998432;28;20729;-71
2021/04/28 07:25:42;;;;;;;13.33;9.80;;;10.20;1.00;;;;;;5012794;28;20313;-71
2021/04/28 07:28:08;;;;;;;12.60;9.67;;;10.30;1.00;;;;;;5014872;28;20993;-71
2021/04/28 07:30:34;;;;;;;16.30;10.10;;;10.30;1.00;;;;;;5012034;28;20661;-71
2021/04/28 07:32:59;;;;;;;15.17;10.60;;;10.40;1.00;;;;;;5010711;28;20647;-71
2021/04/28 07:35:26;;;;;;;15.57;10.27;;;10.50;1.00;;;;;;5011145;28;20492;-71
2021/04/28 07:37:51;;;;;;;16.53;10.20;;;10.60;1.00;;;;;;4997987;28;20824;-71
2021/04/28 07:40:21;;;;;;;12.53;10.23;;;10.60;1.00;;;;;;5010945;28;20948;-71
2021/04/28 07:42:48;;;;;;;29.00;11.77;;;10.90;1.00;;;;;;5010687;28;20193;-71
2021/04/28 07:45:14;;;;;;;16.03;11.00;;;11.00;1.00;;;;;;5005591;28;20502;-72
2021/04/28 07:47:40;;;;;;;13.50;10.43;;;11.10;1.00;;;;;;5000150;28;20442;-72
2021/04/28 07:50:06;;;;;;;17.03;11.10;;;11.30;1.00;;;;;;5009789;28;20447;-72
2021/04/28 07:52:32;;;;;;;20.07;11.43;;;11.50;1.00;;;;;;5008406;28;20232;-72
2021/04/28 07:54:58;;;;;;;13.57;9.73;;;11.70;1.00;;;;;;5022367;28;21091;-73
2021/04/28 07:57:23;;;;;;;20.80;10.77;;;11.90;1.00;;;;;;5010652;28;21044;-70
2021/04/28 07:59:49;;;;;;;15.70;10.40;;;12.00;1.00;;;;;;5007558;28;24659;-71
2021/04/28 08:02:14;;;;;;;17.97;10.33;;;12.20;1.00;;;;;;4990552;28;20197;-70
2021/04/28 08:04:40;;;;;;;13.13;9.97;;;12.20;1.00;;;;;;5007682;28;20189;-70
2021/04/28 08:07:07;;;;;;;18.97;10.07;;;12.40;1.00;;;;;;4994023;28;20596;-70
2021/04/28 08:09:35;;;;;;;17.00;10.93;;;12.60;1.00;;;;;;5010788;28;20248;-70
2021/04/28 08:12:03;;;;;;;13.10;10.90;;;12.70;1.00;;;;;;5009321;28;20652;-71
2021/04/28 08:14:29;;;;;;;14.87;10.33;;;12.80;1.00;;;;;;5005769;28;20663;-71
2021/04/28 08:16:54;;;;;;;13.27;10.00;;;12.90;1.00;;;;;;5003771;28;20448;-71
2021/04/28 08:19:20;;;;;;;12.73;10.43;;;12.90;1.00;;;;;;5012450;28;20184;-70
2021/04/28 08:21:49;;;;;;;15.87;11.00;;;13.10;1.00;;;;;;5010145;28;20195;-71
2021/04/28 08:24:15;;;;;;;13.80;10.83;;;13.30;1.00;;;;;;5005056;28;20188;-71
2021/04/28 08:26:40;;;;;;;15.07;10.30;;;13.50;1.00;;;;;;4999129;28;20477;-71
2021/04/28 08:29:06;;;;;;;19.40;11.60;;;13.70;1.00;;;;;;4999145;28;20618;-71
2021/04/28 08:31:32;;;;;;;17.80;10.87;;;13.80;1.00;;;;;;4981091;28;20383;-71
2021/04/28 08:33:58;;;;;;;15.90;9.67;;;14.00;1.00;;;;;;4998038;28;20464;-71
2021/04/28 08:36:27;;;;;;;18.03;9.30;;;14.10;1.00;;;;;;4988990;28;20375;-71
2021/04/28 08:38:53;;;;;;;19.30;9.40;;;14.40;1.00;;;;;;5001069;28;21290;-70
2021/04/28 08:41:19;;;;;;;16.03;9.30;;;14.50;1.00;;;;;;4998861;28;20195;-72
2021/04/28 08:43:44;;;;;;;13.33;9.10;;;14.70;1.00;;;;;;4997131;28;21000;-72
2021/04/28 08:46:10;;;;;;;18.33;9.30;;;14.70;1.00;;;;;;5001503;28;20201;-72
2021/04/28 08:48:36;;;;;;;16.27;8.53;;;14.90;1.00;;;;;;5004149;28;20233;-72
2021/04/28 08:51:03;;;;;;;12.00;9.00;;;15.10;1.00;;;;;;4996166;28;20200;-72
2021/04/28 08:53:31;;;;;;;12.90;8.77;;;15.20;1.00;;;;;;4999266;28;20943;-72
2021/04/28 08:55:58;;;;;;;13.13;8.00;;;15.40;1.00;;;;;;5000521;28;20659;-72
2021/04/28 08:58:24;;;;;;;17.50;8.33;;;15.50;1.00;;;;;;4997505;28;20561;-72
2021/04/28 09:00:51;;;;;;;10.50;7.83;;;15.40;1.00;;;;;;4992188;28;20454;-72
2021/04/28 09:03:19;;;;;;;10.30;7.87;;;15.40;1.00;;;;;;4998482;28;20505;-73
2021/04/28 09:05:45;;;;;;;12.20;8.10;;;15.50;1.00;;;;;;4999785;28;20495;-71
2021/04/28 09:08:12;;;;;;;11.17;7.50;;;15.70;1.00;;;;;;5000440;28;20827;-72
2021/04/28 09:10:39;;;;;;;16.63;8.20;;;15.90;1.00;;;;;;5000749;28;20728;-71
2021/04/28 09:13:17;;;;;;;8.80;6.80;;;15.90;1.00;;;;;;4999056;28;20453;-72
2021/04/28 09:15:45;;;;;;;12.70;8.13;;;16.00;1.00;;;;;;4998422;28;20442;-71
2021/04/28 09:18:34;;;;;;;10.63;8.00;;;16.30;1.00;;;;;;5001607;28;20464;-71
2021/04/28 09:21:46;;;;;;;9.60;7.70;;;16.30;1.00;;;;;;5001089;28;20490;-71
2021/04/28 09:24:50;;;;;;;8.47;7.00;;;16.40;1.00;;;;;;5011012;28;20442;-71
2021/04/28 09:27:37;;;;;;;11.70;8.80;;;16.50;1.00;;;;;;5002832;28;20572;-71
2021/04/28 09:30:24;;;;;;;11.13;7.90;;;16.70;1.00;;;;;;4998354;28;20448;-71
2021/04/28 09:33:02;;;;;;;11.27;7.83;;;16.60;1.00;;;;;;5009483;28;20849;-71
2021/04/28 09:35:27;;;;;;;10.47;8.47;;;16.50;1.00;;;;;;5002044;28;20445;-71
2021/04/28 09:37:58;;;;;;;11.03;7.70;;;16.50;1.00;;;;;;5006175;28;20980;-71
2021/04/28 09:40:46;;;;;;;12.57;8.20;;;16.60;1.00;;;;;;5005725;28;20192;-71
2021/04/28 09:43:13;;;;;;;8.17;6.40;;;16.50;1.00;;;;;;5013679;28;20459;-72
2021/04/28 09:45:39;;;;;;;10.90;7.60;;;16.80;1.00;;;;;;5003168;28;20482;-72
2021/04/28 09:48:06;;;;;;;11.77;8.20;;;16.90;1.00;;;;;;5017430;28;20587;-71
2021/04/28 09:50:32;;;;;;;10.90;7.43;;;16.80;1.00;;;;;;5007194;28;20446;-72
2021/04/28 09:52:57;;;;;;;11.40;8.40;;;16.80;1.00;;;;;;5002824;28;20996;-71
2021/04/28 09:55:24;;;;;;;13.03;6.90;;;16.80;1.00;;;;;;5004426;28;20454;-71
2021/04/28 09:57:53;;;;;;;10.63;7.20;;;16.90;1.00;;;;;;5006999;28;20313;-71
2021/04/28 10:00:22;;;;;;;12.37;7.90;;;17.10;1.00;;;;;;5006349;28;20449;-71
2021/04/28 10:02:53;;;;;;;11.47;7.73;;;17.20;1.00;;;;;;5011183;28;20550;-72
2021/04/28 10:05:21;;;;;;;8.93;7.20;;;17.20;1.00;;;;;;5010510;28;20484;-72
2021/04/28 10:07:48;;;;;;;13.70;7.63;;;17.20;1.00;;;;;;5003001;28;21077;-71
2021/04/28 10:10:15;;;;;;;11.50;7.80;;;17.30;1.00;;;;;;5003689;28;20978;-72
2021/04/28 10:12:41;;;;;;;7.80;6.57;;;17.30;1.00;;;;;;5001318;28;20898;-71
2021/04/28 10:15:08;;;;;;;15.03;8.63;;;17.30;1.00;;;;;;5010326;28;20448;-71
2021/04/28 10:17:37;;;;;;;10.93;7.53;;;17.40;1.00;;;;;;5008994;28;20190;-71
2021/04/28 10:20:05;;;;;;;8.93;7.60;;;17.50;1.00;;;;;;5002183;28;20578;-71
2021/04/28 10:22:32;;;;;;;12.23;8.57;;;17.50;1.00;;;;;;4999737;28;20472;-71
2021/04/28 10:24:59;;;;;;;9.97;7.47;;;17.60;1.00;;;;;;5004954;28;21136;-71
2021/04/28 10:27:27;;;;;;;10.20;7.30;;;17.80;1.00;;;;;;5010770;28;20867;-71
2021/04/28 10:29:54;;;;;;;9.00;6.80;;;17.80;1.00;;;;;;5011716;28;25339;-72
2021/04/28 10:32:22;;;;;;;10.83;7.47;;;17.90;1.00;;;;;;5008174;28;20441;-72
2021/04/28 10:34:53;;;;;;;12.13;8.30;;;17.90;1.00;;;;;;5004261;28;20453;-72
2021/04/28 10:37:21;;;;;;;12.53;7.80;;;18.00;1.00;;;;;;5003331;28;20492;-71
2021/04/28 10:39:48;;;;;;;11.20;7.70;;;18.00;1.00;;;;;;4983765;28;20448;-72
2021/04/28 10:42:24;;;;;;;12.00;9.10;;;18.10;1.00;;;;;;5006537;28;21909;-72
2021/04/28 10:44:50;;;;;;;10.13;7.07;;;18.10;1.00;;;;;;5009846;28;20815;-71
2021/04/28 10:47:25;;;;;;;9.57;7.30;;;18.20;1.00;;;;;;5006569;28;20479;-71
2021/04/28 10:50:10;;;;;;;10.23;7.30;;;18.40;1.00;;;;;;5002243;28;20814;-72
2021/04/28 10:52:40;;;;;;;8.03;7.03;;;18.40;1.00;;;;;;5007842;28;20820;-72
2021/04/28 10:55:26;;;;;;;13.93;8.57;;;18.50;1.00;;;;;;5011569;28;20465;-71
2021/04/28 10:57:52;;;;;;;11.20;8.10;;;18.30;1.00;;;;;;5009742;28;20962;-72
2021/04/28 11:00:21;;;;;;;14.17;8.60;;;18.10;1.00;;;;;;5006466;28;20540;-72
2021/04/28 11:02:47;;;;;;;12.80;9.33;;;18.10;1.00;;;;;;5010992;28;20667;-72
2021/04/28 11:05:26;;;;;;;10.83;8.10;;;18.20;1.00;;;;;;5004917;28;20454;-72
2021/04/28 11:07:54;;;;;;;11.77;8.00;;;18.40;1.00;;;;;;5007111;28;20476;-72
2021/04/28 11:10:29;;;;;;;13.27;8.10;;;18.50;1.00;;;;;;5009441;28;20475;-72
2021/04/28 11:13:21;;;;;;;13.30;7.50;;;18.60;1.00;;;;;;4991396;28;21341;-71
2021/04/28 11:15:54;;;;;;;10.03;7.83;;;18.70;1.00;;;;;;4991364;28;20452;-72
2021/04/28 11:18:32;;;;;;;10.10;7.60;;;18.90;1.00;;;;;;4995584;28;20558;-71
2021/04/28 11:21:13;;;;;;;8.60;7.50;;;18.80;1.00;;;;;;4998075;28;20445;-72
2021/04/28 11:24:05;;;;;;;7.57;6.77;;;18.80;1.00;;;;;;4997108;28;20455;-72
2021/04/28 11:26:33;;;;;;;8.50;7.03;;;18.80;1.00;;;;;;5002245;28;20503;-71
2021/04/28 11:28:59;;;;;;;9.37;7.27;;;18.90;1.00;;;;;;4998735;28;20484;-72
2021/04/28 11:31:42;;;;;;;6.27;5.67;;;19.00;1.00;;;;;;4999237;28;21014;-72
2021/04/28 11:34:26;;;;;;;8.77;6.97;;;19.00;1.00;;;;;;4998396;28;20183;-72
2021/04/28 11:36:58;;;;;;;13.20;8.40;;;18.90;1.00;;;;;;4997845;28;20618;-72
2021/04/28 11:39:46;;;;;;;10.93;8.50;;;18.90;1.00;;;;;;4995418;28;20518;-71
2021/04/28 11:42:19;;;;;;;9.10;8.17;;;18.90;1.00;;;;;;4997226;28;20446;-72
2021/04/28 11:44:54;;;;;;;13.60;8.00;;;19.00;1.00;;;;;;5004437;28;20497;-72
2021/04/28 11:47:21;;;;;;;8.87;6.87;;;18.90;1.00;;;;;;5008983;28;21341;-72
2021/04/28 11:49:49;;;;;;;8.03;7.07;;;19.00;1.00;;;;;;5004830;28;20470;-71
2021/04/28 11:52:16;;;;;;;7.70;6.90;;;19.30;1.00;;;;;;4994720;28;20469;-71
2021/04/28 11:54:43;;;;;;;8.53;7.63;;;19.20;1.00;;;;;;4998688;28;20503;-71
2021/04/28 11:57:10;;;;;;;12.30;7.27;;;19.20;1.00;;;;;;5000927;28;20838;-72
2021/04/28 11:59:37;;;;;;;11.57;7.40;;;19.10;1.00;;;;;;5000611;28;20460;-72
2021/04/28 12:02:03;;;;;;;10.47;6.80;;;18.90;1.00;;;;;;5001063;28;20519;-72
2021/04/28 12:04:45;;;;;;;12.17;7.37;;;19.00;1.00;;;;;;4998711;28;20456;-72
2021/04/28 12:07:14;;;;;;;12.37;8.50;;;19.20;1.00;;;;;;5002232;28;20221;-71
2021/04/28 12:09:49;;;;;;;9.03;7.20;;;19.40;1.00;;;;;;4999491;28;20469;-72
2021/04/28 12:12:19;;;;;;;10.87;7.90;;;19.30;1.00;;;;;;5006404;28;20883;-73
2021/04/28 12:15:06;;;;;;;10.20;8.50;;;19.40;1.00;;;;;;5001485;28;20451;-72
2021/04/28 12:17:33;;;;;;;12.70;8.03;;;19.30;1.00;;;;;;4998933;28;20449;-72
2021/04/28 12:19:59;;;;;;;8.70;7.53;;;19.30;1.00;;;;;;4999391;28;20976;-72
2021/04/28 12:22:27;;;;;;;11.07;8.70;;;19.40;1.00;;;;;;5002394;28;20939;-72
2021/04/28 12:25:01;;;;;;;11.80;7.53;;;19.30;1.00;;;;;;4993491;28;20933;-71
2021/04/28 12:27:34;;;;;;;12.53;8.90;;;19.40;1.00;;;;;;4996489;28;21262;-71
2021/04/28 12:30:04;;;;;;;12.10;8.53;;;19.60;1.00;;;;;;5003695;28;20901;-72
2021/04/28 12:32:35;;;;;;;10.50;8.33;;;19.40;1.00;;;;;;5000193;28;20999;-72
2021/04/28 12:35:23;;;;;;;18.20;8.83;;;19.50;1.00;;;;;;5000430;28;20454;-71
2021/04/28 12:38:12;;;;;;;11.87;7.73;;;19.40;1.00;;;;;;5003024;28;20527;-72
2021/04/28 12:40:46;;;;;;;7.47;5.93;;;19.70;1.00;;;;;;5001110;28;21064;-72
2021/04/28 12:43:16;;;;;;;8.70;6.80;;;19.70;1.00;;;;;;5001217;28;20786;-72
2021/04/28 12:45:42;;;;;;;8.20;6.00;;;19.80;1.00;;;;;;5006214;28;20512;-73
2021/04/28 12:48:12;;;;;;;8.20;6.77;;;19.90;1.00;;;;;;5007744;28;20454;-72
2021/04/28 12:50:39;;;;;;;7.07;5.97;;;19.90;1.00;;;;;;4997035;28;20522;-72
2021/04/28 12:53:10;;;;;;;9.27;6.37;;;20.10;1.00;;;;;;4998495;28;20484;-72
2021/04/28 12:55:38;;;;;;;15.83;6.73;;;20.10;1.00;;;;;;5001020;28;20592;-71
2021/04/28 12:58:10;;;;;;;8.13;4.80;;;19.80;1.00;;;;;;5003758;28;20509;-72
2021/04/28 13:00:41;;;;;;;7.20;5.10;;;19.90;1.00;;;;;;5001422;28;20836;-71
2021/04/28 13:03:15;;;;;;;5.50;4.90;;;20.20;1.00;;;;;;4997216;28;20657;-72
2021/04/28 13:05:49;;;;;;;6.70;4.97;;;20.50;1.00;;;;;;4989132;28;20513;-71